createdAt,value
2023-03-15T00:01:47.770Z,3.03
2023-03-15T00:04:14.488Z,3.04
2023-03-15T00:06:41.151Z,3.00
2023-03-15T00:09:08.117Z,3.02
2023-03-15T00:11:34.789Z,3.02
2023-03-15T00:14:02.390Z,2.98
2023-03-15T00:16:29.044Z,2.96
2023-03-15T00:18:56.268Z,3.01
2023-03-15T00:21:23.563Z,2.92
2023-03-15T00:23:50.651Z,2.95
2023-03-15T00:26:17.212Z,3.01
2023-03-15T00:28:44.012Z,3.00
2023-03-15T00:31:23.606Z,2.98
2023-03-15T00:33:53.708Z,2.92
2023-03-15T00:36:24.237Z,2.88
2023-03-15T00:38:53.383Z,2.82
2023-03-15T00:41:21.323Z,2.82
2023-03-15T00:43:47.862Z,2.85
2023-03-15T00:46:16.732Z,2.82
2023-03-15T00:48:43.306Z,2.79
2023-03-15T00:51:15.959Z,2.83
2023-03-15T00:53:44.399Z,2.82
2023-03-15T00:56:14.048Z,2.81
2023-03-15T00:58:41.248Z,2.81
2023-03-15T01:01:12.817Z,2.88
2023-03-15T01:03:40.807Z,2.83
2023-03-15T01:06:09.900Z,2.78
2023-03-15T01:08:36.420Z,2.78
2023-03-15T01:11:08.766Z,2.76
2023-03-15T01:13:36.038Z,2.73
2023-03-15T01:16:03.423Z,2.75
2023-03-15T01:18:31.010Z,2.79
2023-03-15T01:20:58.040Z,2.72
2023-03-15T01:23:25.025Z,2.70
2023-03-15T01:25:51.642Z,2.72
2023-03-15T01:28:18.132Z,2.72
2023-03-15T01:30:52.613Z,2.69
2023-03-15T01:33:20.366Z,2.64
2023-03-15T01:35:47.223Z,2.69
2023-03-15T01:38:13.768Z,2.69
2023-03-15T01:40:46.935Z,2.62
2023-03-15T01:43:22.555Z,2.64
2023-03-15T01:46:23.665Z,2.63
2023-03-15T01:48:57.310Z,2.59
2023-03-15T01:51:39.304Z,2.60
2023-03-15T01:54:05.704Z,2.66
2023-03-15T01:56:34.892Z,2.59
2023-03-15T01:59:05.003Z,2.57
2023-03-15T02:01:35.521Z,2.55
2023-03-15T02:04:10.728Z,2.61
2023-03-15T02:06:37.509Z,2.59
2023-03-15T02:09:15.036Z,2.65
2023-03-15T02:11:42.539Z,2.66
2023-03-15T02:14:13.419Z,2.58
2023-03-15T02:16:40.021Z,2.60
2023-03-15T02:19:11.842Z,2.64
2023-03-15T02:21:44.170Z,2.63
2023-03-15T02:24:58.194Z,2.64
2023-03-15T02:27:36.098Z,2.63
2023-03-15T02:30:04.897Z,2.64
2023-03-15T02:32:31.850Z,2.64
2023-03-15T02:34:58.381Z,2.68
2023-03-15T02:37:25.359Z,2.62
2023-03-15T02:39:51.898Z,2.67
2023-03-15T02:42:19.328Z,2.69
2023-03-15T02:44:49.094Z,2.70
2023-03-15T02:47:20.367Z,2.75
2023-03-15T02:49:53.806Z,2.78
2023-03-15T02:52:21.494Z,2.82
2023-03-15T02:54:51.563Z,2.79
2023-03-15T02:57:19.738Z,2.78
2023-03-15T02:59:46.352Z,2.81
2023-03-15T03:02:13.153Z,2.78
2023-03-15T03:04:40.111Z,2.80
2023-03-15T03:07:06.657Z,2.82
2023-03-15T03:09:33.366Z,2.86
2023-03-15T03:11:59.994Z,2.84
2023-03-15T03:14:26.590Z,2.85
2023-03-15T03:16:53.199Z,2.83
2023-03-15T03:19:19.684Z,2.80
2023-03-15T03:21:46.147Z,2.84
2023-03-15T03:24:16.177Z,2.89
2023-03-15T03:26:46.122Z,2.87
2023-03-15T03:29:16.471Z,2.89
2023-03-15T03:31:44.092Z,2.91
2023-03-15T03:34:12.132Z,2.90
2023-03-15T03:36:38.604Z,2.93
2023-03-15T03:39:05.171Z,2.89
2023-03-15T03:41:31.868Z,2.91
2023-03-15T03:43:58.325Z,2.90
2023-03-15T03:46:24.891Z,2.86
2023-03-15T03:48:51.423Z,2.82
2023-03-15T03:51:17.881Z,2.84
2023-03-15T03:53:44.348Z,2.87
2023-03-15T03:56:10.850Z,2.87
2023-03-15T03:58:37.390Z,2.81
2023-03-15T04:01:04.138Z,2.81
2023-03-15T04:03:31.086Z,2.80
2023-03-15T04:05:59.157Z,2.83
2023-03-15T04:08:26.990Z,2.76
2023-03-15T04:10:55.322Z,2.75
2023-03-15T04:13:22.798Z,2.73
2023-03-15T04:15:50.575Z,2.76
2023-03-15T04:18:17.974Z,2.77
2023-03-15T04:20:46.741Z,2.67
2023-03-15T04:23:19.032Z,2.64
2023-03-15T04:25:49.710Z,2.60
2023-03-15T04:28:16.857Z,2.62
2023-03-15T04:30:44.434Z,2.55
2023-03-15T04:33:11.384Z,2.58
2023-03-15T04:35:39.225Z,2.57
2023-03-15T04:38:06.694Z,2.56
2023-03-15T04:40:35.125Z,2.59
2023-03-15T04:43:06.329Z,2.60
2023-03-15T04:45:32.993Z,2.55
2023-03-15T04:48:01.697Z,2.67
2023-03-15T04:50:29.866Z,2.61
2023-03-15T04:52:58.783Z,2.58
2023-03-15T04:55:25.555Z,2.60
2023-03-15T04:57:52.100Z,2.59
2023-03-15T05:00:18.886Z,2.52
2023-03-15T05:02:47.542Z,2.52
2023-03-15T05:05:14.013Z,2.52
2023-03-15T05:07:42.036Z,2.56
2023-03-15T05:10:09.058Z,2.54
2023-03-15T05:12:35.535Z,2.56
2023-03-15T05:15:02.046Z,2.56
2023-03-15T05:17:28.609Z,2.55
2023-03-15T05:19:55.045Z,2.49
2023-03-15T05:22:25.680Z,2.52
2023-03-15T05:24:53.800Z,2.47
2023-03-15T05:27:20.858Z,2.40
2023-03-15T05:29:47.728Z,2.39
2023-03-15T05:32:14.361Z,2.38
2023-03-15T05:34:40.902Z,2.35
2023-03-15T05:37:12.321Z,2.30
2023-03-15T05:39:38.831Z,2.31
2023-03-15T05:42:06.005Z,2.31
2023-03-15T05:44:32.474Z,2.36
2023-03-15T05:46:58.962Z,2.33
2023-03-15T05:49:25.506Z,2.37
2023-03-15T05:51:51.987Z,2.41
2023-03-15T05:54:18.475Z,2.42
2023-03-15T05:56:44.972Z,2.36
2023-03-15T05:59:11.574Z,2.36
2023-03-15T06:01:38.055Z,2.35
2023-03-15T06:04:07.476Z,2.40
2023-03-15T06:06:34.668Z,2.49
2023-03-15T06:09:01.176Z,2.44
2023-03-15T06:11:27.645Z,2.47
2023-03-15T06:13:54.188Z,2.49
2023-03-15T06:16:20.747Z,2.49
2023-03-15T06:18:47.383Z,2.44
2023-03-15T06:21:13.837Z,2.40
2023-03-15T06:23:40.575Z,2.38
2023-03-15T06:26:07.064Z,2.35
2023-03-15T06:28:33.647Z,2.38
2023-03-15T06:31:08.321Z,2.42
2023-03-15T06:33:35.334Z,2.48
2023-03-15T06:36:01.860Z,2.53
2023-03-15T06:38:28.488Z,2.58
2023-03-15T06:41:01.179Z,2.61
2023-03-15T06:43:28.554Z,2.69
2023-03-15T06:45:56.716Z,2.73
2023-03-15T06:48:23.247Z,2.78
2023-03-15T06:50:49.872Z,2.77
2023-03-15T06:53:16.584Z,2.79
2023-03-15T06:55:43.208Z,2.75
2023-03-15T06:58:09.725Z,2.78
2023-03-15T07:00:36.596Z,2.80
2023-03-15T07:03:06.326Z,2.84
2023-03-15T07:05:32.859Z,2.87
2023-03-15T07:07:59.432Z,2.84
2023-03-15T07:10:26.051Z,2.84
2023-03-15T07:12:52.621Z,2.82
2023-03-15T07:15:19.145Z,2.81
2023-03-15T07:17:45.686Z,2.84
2023-03-15T07:20:12.781Z,2.88
2023-03-15T07:22:39.232Z,2.88
2023-03-15T07:25:07.498Z,2.92
2023-03-15T07:27:33.978Z,2.95
2023-03-15T07:30:01.213Z,3.00
2023-03-15T07:32:27.911Z,3.03
2023-03-15T07:34:58.326Z,3.04
2023-03-15T07:37:24.912Z,3.08
2023-03-15T07:39:51.414Z,3.13
2023-03-15T07:42:19.794Z,3.19
2023-03-15T07:44:46.391Z,3.22
2023-03-15T07:47:13.018Z,3.29
2023-03-15T07:49:45.834Z,3.26
2023-03-15T07:52:12.439Z,3.31
2023-03-15T07:54:39.130Z,3.38
2023-03-15T07:57:05.965Z,3.36
2023-03-15T07:59:32.524Z,3.35
2023-03-15T08:02:01.600Z,3.29
2023-03-15T08:04:29.458Z,3.32
2023-03-15T08:06:56.178Z,3.26
2023-03-15T08:09:23.162Z,3.24
2023-03-15T08:11:49.694Z,3.19
2023-03-15T08:14:16.163Z,3.17
2023-03-15T08:16:42.737Z,3.15
2023-03-15T08:19:09.265Z,3.35
2023-03-15T08:21:35.789Z,3.55
2023-03-15T08:24:02.409Z,3.80
2023-03-15T08:26:28.933Z,3.90
2023-03-15T08:28:55.396Z,4.11
2023-03-15T08:31:22.035Z,4.34
2023-03-15T08:33:48.524Z,4.34
2023-03-15T08:36:15.040Z,4.07
2023-03-15T08:38:41.803Z,3.83
2023-03-15T08:41:08.301Z,4.05
2023-03-15T08:43:34.743Z,4.33
2023-03-15T08:46:01.989Z,4.53
2023-03-15T08:48:29.357Z,5.05
2023-03-15T08:50:57.403Z,5.22
2023-03-15T08:53:23.861Z,4.77
2023-03-15T08:55:50.601Z,5.03
2023-03-15T08:58:17.121Z,4.75
2023-03-15T09:00:47.116Z,4.45
2023-03-15T09:03:14.577Z,4.42
2023-03-15T09:05:41.251Z,4.22
2023-03-15T09:08:07.726Z,4.11
2023-03-15T09:10:34.449Z,4.12
2023-03-15T09:13:00.919Z,4.18
2023-03-15T09:15:27.540Z,4.13
2023-03-15T09:17:54.097Z,4.12
2023-03-15T09:20:23.004Z,4.37
2023-03-15T09:22:52.476Z,4.36
2023-03-15T09:25:19.655Z,4.29
2023-03-15T09:27:46.333Z,4.22
2023-03-15T09:30:14.024Z,4.26
2023-03-15T09:32:40.929Z,4.30
2023-03-15T09:35:10.408Z,4.39
2023-03-15T09:37:36.917Z,4.24
2023-03-15T09:40:04.708Z,4.19
2023-03-15T09:42:37.053Z,4.19
2023-03-15T09:45:13.027Z,4.04
2023-03-15T09:48:03.043Z,3.96
2023-03-15T09:50:34.146Z,4.53
2023-03-15T09:53:24.710Z,5.32
2023-03-15T09:55:51.654Z,6.04
2023-03-15T09:58:32.727Z,5.84
2023-03-15T10:01:19.311Z,5.17
2023-03-15T10:03:51.373Z,4.94
2023-03-15T10:06:26.554Z,5.40
2023-03-15T10:09:16.439Z,5.64
2023-03-15T10:11:50.695Z,5.91
2023-03-15T10:14:41.891Z,6.30
2023-03-15T10:17:13.914Z,6.14
2023-03-15T10:19:50.431Z,6.27
2023-03-15T10:22:27.984Z,6.14
2023-03-15T10:25:18.473Z,5.51
2023-03-15T10:27:53.102Z,5.25
2023-03-15T10:30:24.968Z,5.51
2023-03-15T10:33:19.397Z,5.94
2023-03-15T10:35:45.976Z,6.27
2023-03-15T10:38:20.979Z,6.37
2023-03-15T10:53:11.234Z,6.57
2023-03-15T10:55:43.445Z,7.03
2023-03-15T10:58:39.011Z,6.96
2023-03-15T11:01:08.594Z,6.72
2023-03-15T11:03:37.316Z,7.11
2023-03-15T11:06:19.978Z,7.18
2023-03-15T11:08:46.527Z,7.21
2023-03-15T11:11:13.032Z,7.00
2023-03-15T11:13:41.796Z,6.92
2023-03-15T11:16:33.716Z,6.44
2023-03-15T11:19:03.470Z,6.05
2023-03-15T11:21:34.546Z,5.96
2023-03-15T11:24:03.289Z,5.73
2023-03-15T11:26:35.808Z,5.45
2023-03-15T11:29:14.737Z,4.98
2023-03-15T11:31:41.311Z,4.66
2023-03-15T11:34:22.107Z,4.49
2023-03-15T11:37:05.317Z,4.34
2023-03-15T11:39:45.449Z,4.53
2023-03-15T11:42:19.479Z,5.17
2023-03-15T11:44:50.131Z,5.43
2023-03-15T11:47:28.206Z,5.25
2023-03-15T11:49:58.253Z,5.12
2023-03-15T11:52:29.567Z,4.89
2023-03-15T11:55:01.126Z,4.66
2023-03-15T11:57:55.169Z,4.42
2023-03-15T12:00:26.823Z,4.38
2023-03-15T12:02:59.517Z,4.44
2023-03-15T12:05:52.095Z,4.50
2023-03-15T12:08:48.397Z,4.46
2023-03-15T12:11:21.026Z,4.64
2023-03-15T12:13:53.738Z,5.00
2023-03-15T12:16:22.289Z,5.35
2023-03-15T12:18:49.880Z,5.57
2023-03-15T12:21:26.640Z,6.13
2023-03-15T12:24:01.505Z,5.83
2023-03-15T12:26:38.138Z,5.64
2023-03-15T12:29:11.912Z,5.61
2023-03-15T12:31:54.347Z,5.51
2023-03-15T12:34:49.376Z,5.17
2023-03-15T12:37:23.213Z,5.05
2023-03-15T12:40:27.047Z,5.37
2023-03-15T12:42:57.326Z,5.67
2023-03-15T12:45:37.359Z,5.89
2023-03-15T12:48:06.565Z,5.88
2023-03-15T12:50:39.169Z,5.70
2023-03-15T12:53:27.372Z,6.05
2023-03-15T12:56:02.853Z,5.62
2023-03-15T12:58:41.163Z,5.71
2023-03-15T13:01:08.289Z,5.53
2023-03-15T13:03:36.219Z,5.30
2023-03-15T13:06:21.800Z,5.29
2023-03-15T13:08:54.000Z,5.51
2023-03-15T13:11:25.743Z,5.50
2023-03-15T13:14:29.689Z,5.53
2023-03-15T13:17:17.866Z,5.59
2023-03-15T13:19:55.020Z,5.85
2023-03-15T13:23:18.756Z,5.91
2023-03-15T13:26:05.465Z,5.93
2023-03-15T13:28:38.157Z,6.03
2023-03-15T13:31:24.735Z,6.21
2023-03-15T13:34:02.306Z,6.48
2023-03-15T13:36:53.430Z,6.79
2023-03-15T13:39:24.924Z,6.63
2023-03-15T13:41:59.544Z,6.35
2023-03-15T13:44:30.317Z,6.04
2023-03-15T13:46:58.126Z,5.63
2023-03-15T13:49:29.890Z,5.17
2023-03-15T13:51:56.604Z,5.00
2023-03-15T13:54:30.502Z,4.78
2023-03-15T13:57:03.549Z,4.64
2023-03-15T13:59:43.077Z,4.69
2023-03-15T14:02:36.709Z,5.08
2023-03-15T14:05:14.184Z,5.38
2023-03-15T14:07:48.442Z,5.22
2023-03-15T14:10:33.671Z,4.99
2023-03-15T14:13:21.333Z,4.56
2023-03-15T14:15:51.394Z,4.27
2023-03-15T14:18:23.569Z,4.09
2023-03-15T14:21:20.423Z,4.12
2023-03-15T14:23:49.129Z,4.11
2023-03-15T14:26:21.522Z,4.27
2023-03-15T14:29:05.112Z,4.43
2023-03-15T14:31:39.840Z,4.42
2023-03-15T14:34:16.455Z,4.22
2023-03-15T14:36:45.410Z,4.16
2023-03-15T14:39:19.365Z,4.09
2023-03-15T14:41:46.143Z,4.13
2023-03-15T14:44:12.682Z,4.10
2023-03-15T14:46:42.414Z,4.14
2023-03-15T14:49:26.399Z,4.28
2023-03-15T14:52:04.145Z,4.43
2023-03-15T14:54:32.219Z,4.52
2023-03-15T14:56:58.714Z,4.56
2023-03-15T14:59:25.288Z,4.60
2023-03-15T15:01:55.215Z,4.57
2023-03-15T15:04:22.206Z,4.68
2023-03-15T15:06:53.037Z,4.79
2023-03-15T15:09:23.849Z,4.80
2023-03-15T15:11:51.274Z,4.73
2023-03-15T15:14:18.505Z,4.83
2023-03-15T15:16:45.910Z,4.90
2023-03-15T15:19:12.827Z,4.95
2023-03-15T15:21:40.008Z,4.96
2023-03-15T15:24:18.568Z,4.75
2023-03-15T15:26:45.422Z,4.66
2023-03-15T15:29:16.397Z,4.70
2023-03-15T15:31:44.189Z,4.65
2023-03-15T15:34:12.174Z,4.62
2023-03-15T15:36:43.915Z,4.55
2023-03-15T15:39:30.071Z,4.53
2023-03-15T15:41:56.664Z,4.51
2023-03-15T15:44:25.655Z,4.56
2023-03-15T15:46:52.446Z,4.53
2023-03-15T15:49:19.725Z,4.61
2023-03-15T15:51:51.340Z,4.53
2023-03-15T15:54:21.849Z,4.47
2023-03-15T15:56:51.344Z,4.46
2023-03-15T15:59:19.231Z,4.45
2023-03-15T16:01:59.689Z,4.42
2023-03-15T16:04:27.796Z,4.38
2023-03-15T16:06:56.876Z,4.48
2023-03-15T16:09:27.413Z,4.50
2023-03-15T16:11:53.908Z,4.51
2023-03-15T16:14:20.803Z,4.51
2023-03-15T16:16:48.480Z,4.51
2023-03-15T16:19:15.036Z,4.50
2023-03-15T16:21:47.405Z,4.52
2023-03-15T16:24:19.569Z,4.49
2023-03-15T16:26:47.738Z,4.40
2023-03-15T16:29:18.967Z,4.43
2023-03-15T16:31:46.685Z,4.33
2023-03-15T16:34:15.283Z,4.29
2023-03-15T16:36:43.933Z,4.29
2023-03-15T16:39:12.760Z,4.26
2023-03-15T16:41:40.191Z,4.22
2023-03-15T16:44:15.571Z,4.22
2023-03-15T16:46:42.228Z,4.16
2023-03-15T16:49:09.729Z,4.15
2023-03-15T16:51:39.195Z,4.12
2023-03-15T16:54:19.590Z,4.09
2023-03-15T16:56:51.257Z,4.06
2023-03-15T16:59:17.964Z,4.04
2023-03-15T17:01:45.414Z,3.98
2023-03-15T17:04:15.675Z,3.97
2023-03-15T17:06:45.359Z,3.96
2023-03-15T17:09:15.731Z,3.95
2023-03-15T17:11:45.352Z,3.95
2023-03-15T17:14:34.521Z,3.88
2023-03-15T17:17:01.079Z,3.86
2023-03-15T17:19:27.586Z,3.85
2023-03-15T17:21:54.052Z,3.79
2023-03-15T17:24:20.535Z,3.75
2023-03-15T17:26:49.211Z,3.72
2023-03-15T17:29:15.935Z,3.69
2023-03-15T17:31:44.628Z,3.67
2023-03-15T17:34:11.229Z,3.70
2023-03-15T17:36:38.031Z,3.63
2023-03-15T17:39:06.737Z,3.56
2023-03-15T17:41:36.992Z,3.52
2023-03-15T17:44:04.609Z,3.42
2023-03-15T17:46:33.321Z,3.37
2023-03-15T17:49:01.128Z,3.33
2023-03-15T17:51:30.454Z,3.37
2023-03-15T17:53:59.303Z,3.25
2023-03-15T17:56:26.715Z,3.16
2023-03-15T17:58:53.315Z,3.10
2023-03-15T18:01:23.219Z,3.06
2023-03-15T18:03:50.625Z,3.12
2023-03-15T18:06:19.387Z,2.98
2023-03-15T18:08:46.656Z,2.89
2023-03-15T18:11:22.995Z,2.85
2023-03-15T18:13:49.490Z,2.86
2023-03-15T18:16:16.077Z,2.80
2023-03-15T18:18:42.637Z,2.73
2023-03-15T18:21:14.441Z,2.78
2023-03-15T18:23:41.377Z,2.73
2023-03-15T18:26:08.917Z,2.66
2023-03-15T18:28:35.549Z,2.64
2023-03-15T18:31:02.241Z,2.81
2023-03-15T18:33:30.277Z,2.88
2023-03-15T18:35:57.261Z,2.93
2023-03-15T18:38:23.794Z,2.98
2023-03-15T18:40:51.765Z,2.95
2023-03-15T18:43:18.428Z,2.91
2023-03-15T18:45:44.991Z,2.76
2023-03-15T18:48:11.504Z,2.73
2023-03-15T18:50:37.965Z,2.78
2023-03-15T18:53:06.139Z,2.77
2023-03-15T18:55:32.867Z,2.76
2023-03-15T18:57:59.374Z,2.76
2023-03-15T19:00:29.508Z,2.73
2023-03-15T19:02:58.765Z,2.72
2023-03-15T19:05:26.313Z,2.72
2023-03-15T19:07:52.882Z,2.70
2023-03-15T19:10:20.886Z,2.71
2023-03-15T19:12:48.646Z,2.69
2023-03-15T19:15:17.574Z,2.68
2023-03-15T19:17:46.796Z,2.67
2023-03-15T19:20:17.112Z,2.67
2023-03-15T19:22:45.122Z,2.69
2023-03-15T19:25:13.885Z,2.69
2023-03-15T19:27:42.076Z,2.62
2023-03-15T19:30:16.918Z,2.60
2023-03-15T19:32:45.865Z,2.60
2023-03-15T19:35:12.597Z,2.61
2023-03-15T19:37:39.181Z,2.63
2023-03-15T19:40:09.361Z,2.63
2023-03-15T19:42:35.979Z,2.56
2023-03-15T19:45:03.044Z,2.50
2023-03-15T19:47:29.537Z,2.49
2023-03-15T19:50:02.694Z,2.50
2023-03-15T19:52:29.424Z,2.38
2023-03-15T19:54:56.478Z,2.42
2023-03-15T19:57:22.983Z,2.48
2023-03-15T19:59:49.679Z,2.43
2023-03-15T20:02:16.161Z,2.47
2023-03-15T20:04:42.812Z,2.45
2023-03-15T20:07:11.115Z,2.41
2023-03-15T20:09:39.601Z,2.38
2023-03-15T20:12:07.113Z,2.38
2023-03-15T20:14:34.107Z,2.45
2023-03-15T20:17:00.985Z,2.39
2023-03-15T20:19:27.809Z,2.33
2023-03-15T20:21:54.268Z,2.29
2023-03-15T20:24:20.736Z,2.31
2023-03-15T20:26:47.181Z,2.31
2023-03-15T20:29:13.769Z,2.31
2023-03-15T20:31:40.259Z,2.37
2023-03-15T20:34:08.999Z,2.36
2023-03-15T20:36:36.152Z,2.34
2023-03-15T20:39:04.680Z,2.31
2023-03-15T20:41:34.067Z,2.25
2023-03-15T20:44:01.285Z,2.21
2023-03-15T20:46:29.512Z,2.18
2023-03-15T20:48:56.118Z,2.18
2023-03-15T20:51:22.659Z,2.14
2023-03-15T20:53:49.450Z,2.11
2023-03-15T20:56:20.531Z,2.11
2023-03-15T20:58:47.528Z,2.12
2023-03-15T21:01:16.430Z,2.10
2023-03-15T21:03:44.725Z,2.02
2023-03-15T21:06:13.153Z,2.04
2023-03-15T21:08:44.072Z,2.08
2023-03-15T21:11:10.566Z,2.06
2023-03-15T21:13:37.256Z,2.08
2023-03-15T21:16:04.708Z,2.03
2023-03-15T21:18:32.957Z,2.00
2023-03-15T21:21:08.886Z,2.03
2023-03-15T21:23:35.701Z,2.00
2023-03-15T21:26:05.050Z,1.98
2023-03-15T21:28:32.272Z,1.98
2023-03-15T21:31:02.266Z,1.98
2023-03-15T21:33:30.099Z,1.95
2023-03-15T21:35:59.308Z,1.93
2023-03-15T21:38:31.454Z,1.94
2023-03-15T21:41:02.555Z,2.00
2023-03-15T21:43:31.843Z,1.96
2023-03-15T21:46:04.155Z,1.93
2023-03-15T21:48:32.194Z,1.94
2023-03-15T21:51:02.171Z,1.94
2023-03-15T21:53:31.125Z,2.00
2023-03-15T21:55:58.758Z,1.94
2023-03-15T21:58:26.118Z,1.84
2023-03-15T22:01:01.255Z,1.84
2023-03-15T22:03:28.502Z,1.83
2023-03-15T22:05:55.024Z,1.84
2023-03-15T22:08:21.480Z,1.86
2023-03-15T22:10:52.206Z,1.80
2023-03-15T22:13:21.920Z,1.81
2023-03-15T22:15:48.425Z,1.80
2023-03-15T22:18:17.605Z,1.81
2023-03-15T22:20:47.364Z,1.72
2023-03-15T22:23:13.869Z,1.68
2023-03-15T22:25:40.474Z,1.67
2023-03-15T22:28:11.510Z,1.69
2023-03-15T22:30:42.866Z,1.68
2023-03-15T22:33:12.864Z,1.69
2023-03-15T22:35:42.168Z,1.67
2023-03-15T22:38:12.493Z,1.69
2023-03-15T22:40:40.724Z,1.63
2023-03-15T22:43:09.090Z,1.61
2023-03-15T22:45:36.565Z,1.64
2023-03-15T22:48:06.551Z,1.66
2023-03-15T22:50:33.106Z,1.67
2023-03-15T22:53:04.346Z,1.65
2023-03-15T22:55:30.784Z,1.63
2023-03-15T22:57:57.281Z,1.64
2023-03-15T23:00:24.817Z,1.65
2023-03-15T23:02:56.697Z,1.64
2023-03-15T23:05:26.922Z,1.64
2023-03-15T23:07:53.404Z,1.62
2023-03-15T23:10:20.217Z,1.56
2023-03-15T23:12:49.767Z,1.58
2023-03-15T23:15:16.269Z,1.56
2023-03-15T23:17:46.613Z,1.55
2023-03-15T23:20:15.363Z,1.55
2023-03-15T23:22:45.519Z,1.55
2023-03-15T23:25:22.544Z,1.55
2023-03-15T23:27:53.434Z,1.53
2023-03-15T23:30:20.046Z,1.55
2023-03-15T23:32:48.759Z,1.52
2023-03-15T23:35:15.497Z,1.53
2023-03-15T23:37:45.011Z,1.51
2023-03-15T23:40:15.092Z,1.50
2023-03-15T23:42:43.428Z,1.50
2023-03-15T23:45:17.743Z,1.48
2023-03-15T23:47:47.107Z,1.48
2023-03-15T23:50:16.091Z,1.48
2023-03-15T23:52:48.035Z,1.46
2023-03-15T23:55:14.400Z,1.41
2023-03-15T23:57:41.431Z,1.37
